sensor_id;sensor_type;location;lat;lon;timestamp;P1;durP1;ratioP1;P2;durP2;ratioP2
40022;SDS011;25713;-35.352;149.036;2023-06-01T00:00:29;2.05;;;0.28;;
40022;SDS011;25713;-35.352;149.036;2023-06-01T00:02:59;0.55;;;0.20;;
40022;SDS011;25713;-35.352;149.036;2023-06-01T00:05:28;0.30;;;0.30;;
40022;SDS011;25713;-35.352;149.036;2023-06-01T00:07:58;0.70;;;0.30;;
40022;SDS011;25713;-35.352;149.036;2023-06-01T00:10:28;0.77;;;0.32;;
40022;SDS011;25713;-35.352;149.036;2023-06-01T00:12:58;0.63;;;0.30;;
40022;SDS011;25713;-35.352;149.036;2023-06-01T00:15:30;1.17;;;0.30;;
40022;SDS011;25713;-35.352;149.036;2023-06-01T00:18:00;0.52;;;0.30;;
40022;SDS011;25713;-35.352;149.036;2023-06-01T00:23:01;0.40;;;0.30;;
40022;SDS011;25713;-35.352;149.036;2023-06-01T00:25:30;0.45;;;0.43;;
40022;SDS011;25713;-35.352;149.036;2023-06-01T00:28:03;1.70;;;0.40;;
40022;SDS011;25713;-35.352;149.036;2023-06-01T00:30:32;0.75;;;0.40;;
40022;SDS011;25713;-35.352;149.036;2023-06-01T00:33:02;1.33;;;0.40;;
40022;SDS011;25713;-35.352;149.036;2023-06-01T00:35:31;1.23;;;0.38;;
40022;SDS011;25713;-35.352;149.036;2023-06-01T00:38:01;1.50;;;0.35;;
40022;SDS011;25713;-35.352;149.036;2023-06-01T00:40:30;0.95;;;0.30;;
40022;SDS011;25713;-35.352;149.036;2023-06-01T00:43:02;1.65;;;0.40;;
40022;SDS011;25713;-35.352;149.036;2023-06-01T00:45:31;3.75;;;0.52;;
40022;SDS011;25713;-35.352;149.036;2023-06-01T00:48:01;1.15;;;0.40;;
40022;SDS011;25713;-35.352;149.036;2023-06-01T00:50:34;0.50;;;0.30;;
40022;SDS011;25713;-35.352;149.036;2023-06-01T00:53:05;0.20;;;0.20;;
40022;SDS011;25713;-35.352;149.036;2023-06-01T00:55:37;1.50;;;0.22;;
40022;SDS011;25713;-35.352;149.036;2023-06-01T00:58:09;1.40;;;0.30;;
40022;SDS011;25713;-35.352;149.036;2023-06-01T01:00:40;0.57;;;0.32;;
40022;SDS011;25713;-35.352;149.036;2023-06-01T01:03:10;0.47;;;0.40;;
40022;SDS011;25713;-35.352;149.036;2023-06-01T01:05:40;1.08;;;0.40;;
40022;SDS011;25713;-35.352;149.036;2023-06-01T01:08:12;0.57;;;0.20;;
40022;SDS011;25713;-35.352;149.036;2023-06-01T01:10:46;1.33;;;0.60;;
40022;SDS011;25713;-35.352;149.036;2023-06-01T01:13:23;2.00;;;0.50;;
40022;SDS011;25713;-35.352;149.036;2023-06-01T01:16:00;0.98;;;0.40;;
40022;SDS011;25713;-35.352;149.036;2023-06-01T01:18:36;0.77;;;0.40;;
40022;SDS011;25713;-35.352;149.036;2023-06-01T01:21:09;1.40;;;0.35;;
40022;SDS011;25713;-35.352;149.036;2023-06-01T01:23:47;0.28;;;0.28;;
40022;SDS011;25713;-35.352;149.036;2023-06-01T01:26:27;1.65;;;0.40;;
40022;SDS011;25713;-35.352;149.036;2023-06-01T01:29:09;1.27;;;0.30;;
40022;SDS011;25713;-35.352;149.036;2023-06-01T01:31:42;1.35;;;0.40;;
40022;SDS011;25713;-35.352;149.036;2023-06-01T01:34:17;1.23;;;0.40;;
40022;SDS011;25713;-35.352;149.036;2023-06-01T01:36:48;1.15;;;0.30;;
40022;SDS011;25713;-35.352;149.036;2023-06-01T01:39:17;1.20;;;0.47;;
40022;SDS011;25713;-35.352;149.036;2023-06-01T01:41:47;0.73;;;0.38;;
40022;SDS011;25713;-35.352;149.036;2023-06-01T01:44:18;2.03;;;0.45;;
40022;SDS011;25713;-35.352;149.036;2023-06-01T01:49:21;2.30;;;0.40;;
40022;SDS011;25713;-35.352;149.036;2023-06-01T01:51:56;1.00;;;0.50;;
40022;SDS011;25713;-35.352;149.036;2023-06-01T01:54:32;0.98;;;0.50;;
40022;SDS011;25713;-35.352;149.036;2023-06-01T01:57:04;1.85;;;0.35;;
40022;SDS011;25713;-35.352;149.036;2023-06-01T01:59:37;2.15;;;0.50;;
40022;SDS011;25713;-35.352;149.036;2023-06-01T02:02:08;0.70;;;0.45;;
40022;SDS011;25713;-35.352;149.036;2023-06-01T02:04:38;1.02;;;0.40;;
40022;SDS011;25713;-35.352;149.036;2023-06-01T02:07:09;2.10;;;0.60;;
40022;SDS011;25713;-35.352;149.036;2023-06-01T02:09:39;1.33;;;0.50;;
40022;SDS011;25713;-35.352;149.036;2023-06-01T02:12:11;1.73;;;0.60;;
40022;SDS011;25713;-35.352;149.036;2023-06-01T02:14:43;2.72;;;0.60;;
40022;SDS011;25713;-35.352;149.036;2023-06-01T02:17:13;2.42;;;0.60;;
40022;SDS011;25713;-35.352;149.036;2023-06-01T02:19:42;1.73;;;0.80;;
40022;SDS011;25713;-35.352;149.036;2023-06-01T02:22:12;0.90;;;0.43;;
40022;SDS011;25713;-35.352;149.036;2023-06-01T02:24:41;1.33;;;0.50;;
40022;SDS011;25713;-35.352;149.036;2023-06-01T02:27:11;2.40;;;0.70;;
40022;SDS011;25713;-35.352;149.036;2023-06-01T02:29:42;2.13;;;0.50;;
40022;SDS011;25713;-35.352;149.036;2023-06-01T02:32:12;2.15;;;0.50;;
40022;SDS011;25713;-35.352;149.036;2023-06-01T02:34:41;1.30;;;0.68;;
40022;SDS011;25713;-35.352;149.036;2023-06-01T02:37:11;3.47;;;0.60;;
40022;SDS011;25713;-35.352;149.036;2023-06-01T02:39:40;2.55;;;0.80;;
40022;SDS011;25713;-35.352;149.036;2023-06-01T02:42:10;2.17;;;0.70;;
40022;SDS011;25713;-35.352;149.036;2023-06-01T02:44:39;2.38;;;0.65;;
40022;SDS011;25713;-35.352;149.036;2023-06-01T02:47:11;3.50;;;0.57;;
40022;SDS011;25713;-35.352;149.036;2023-06-01T02:49:40;1.77;;;0.68;;
40022;SDS011;25713;-35.352;149.036;2023-06-01T02:52:10;1.20;;;0.55;;
40022;SDS011;25713;-35.352;149.036;2023-06-01T02:54:39;5.05;;;1.00;;
40022;SDS011;25713;-35.352;149.036;2023-06-01T02:57:31;1.93;;;0.53;;
40022;SDS011;25713;-35.352;149.036;2023-06-01T03:00:07;0.93;;;0.57;;
40022;SDS011;25713;-35.352;149.036;2023-06-01T03:02:37;1.05;;;0.57;;
40022;SDS011;25713;-35.352;149.036;2023-06-01T03:05:07;1.63;;;0.60;;
40022;SDS011;25713;-35.352;149.036;2023-06-01T03:07:37;1.80;;;0.50;;
40022;SDS011;25713;-35.352;149.036;2023-06-01T03:10:13;1.83;;;0.73;;
40022;SDS011;25713;-35.352;149.036;2023-06-01T03:13:01;1.60;;;0.70;;
40022;SDS011;25713;-35.352;149.036;2023-06-01T03:15:33;3.35;;;0.55;;
40022;SDS011;25713;-35.352;149.036;2023-06-01T03:18:03;2.20;;;0.57;;
40022;SDS011;25713;-35.352;149.036;2023-06-01T03:20:33;1.92;;;0.80;;
40022;SDS011;25713;-35.352;149.036;2023-06-01T03:23:02;1.25;;;0.60;;
40022;SDS011;25713;-35.352;149.036;2023-06-01T03:25:32;3.75;;;0.90;;
40022;SDS011;25713;-35.352;149.036;2023-06-01T03:28:01;1.08;;;0.52;;
40022;SDS011;25713;-35.352;149.036;2023-06-01T03:30:35;1.15;;;0.70;;
40022;SDS011;25713;-35.352;149.036;2023-06-01T03:33:04;2.00;;;0.70;;
40022;SDS011;25713;-35.352;149.036;2023-06-01T03:35:34;3.28;;;0.70;;
40022;SDS011;25713;-35.352;149.036;2023-06-01T03:38:03;4.00;;;0.80;;
40022;SDS011;25713;-35.352;149.036;2023-06-01T03:40:33;3.97;;;0.70;;
40022;SDS011;25713;-35.352;149.036;2023-06-01T03:43:03;1.88;;;0.68;;
40022;SDS011;25713;-35.352;149.036;2023-06-01T03:45:35;1.95;;;0.70;;
40022;SDS011;25713;-35.352;149.036;2023-06-01T03:48:04;1.15;;;0.73;;
40022;SDS011;25713;-35.352;149.036;2023-06-01T03:50:34;3.10;;;0.85;;
40022;SDS011;25713;-35.352;149.036;2023-06-01T03:53:04;2.03;;;0.73;;
40022;SDS011;25713;-35.352;149.036;2023-06-01T03:55:33;3.35;;;0.80;;
40022;SDS011;25713;-35.352;149.036;2023-06-01T03:58:38;2.40;;;0.70;;
40022;SDS011;25713;-35.352;149.036;2023-06-01T04:01:10;1.77;;;0.57;;
40022;SDS011;25713;-35.352;149.036;2023-06-01T04:03:40;2.95;;;0.80;;
40022;SDS011;25713;-35.352;149.036;2023-06-01T04:06:09;1.60;;;0.60;;
40022;SDS011;25713;-35.352;149.036;2023-06-01T04:08:39;0.98;;;0.70;;
40022;SDS011;25713;-35.352;149.036;2023-06-01T04:11:08;1.08;;;0.68;;
40022;SDS011;25713;-35.352;149.036;2023-06-01T04:13:38;2.55;;;0.65;;
40022;SDS011;25713;-35.352;149.036;2023-06-01T04:16:09;2.55;;;0.52;;
40022;SDS011;25713;-35.352;149.036;2023-06-01T04:18:41;2.10;;;0.70;;
40022;SDS011;25713;-35.352;149.036;2023-06-01T04:21:16;1.52;;;0.63;;
40022;SDS011;25713;-35.352;149.036;2023-06-01T04:23:47;2.45;;;0.70;;
40022;SDS011;25713;-35.352;149.036;2023-06-01T04:26:18;1.73;;;0.80;;
40022;SDS011;25713;-35.352;149.036;2023-06-01T04:28:48;5.95;;;1.45;;
40022;SDS011;25713;-35.352;149.036;2023-06-01T04:31:20;1.50;;;0.60;;
40022;SDS011;25713;-35.352;149.036;2023-06-01T04:33:49;1.23;;;0.60;;
40022;SDS011;25713;-35.352;149.036;2023-06-01T04:36:19;1.90;;;0.60;;
40022;SDS011;25713;-35.352;149.036;2023-06-01T04:38:50;1.30;;;0.57;;
40022;SDS011;25713;-35.352;149.036;2023-06-01T04:41:20;1.42;;;0.55;;
40022;SDS011;25713;-35.352;149.036;2023-06-01T04:43:50;2.28;;;0.65;;
40022;SDS011;25713;-35.352;149.036;2023-06-01T04:46:23;1.27;;;0.70;;
40022;SDS011;25713;-35.352;149.036;2023-06-01T04:48:56;2.42;;;0.80;;
40022;SDS011;25713;-35.352;149.036;2023-06-01T04:51:26;2.58;;;0.73;;
40022;SDS011;25713;-35.352;149.036;2023-06-01T04:53:56;1.20;;;0.68;;
40022;SDS011;25713;-35.352;149.036;2023-06-01T04:56:25;1.08;;;0.68;;
40022;SDS011;25713;-35.352;149.036;2023-06-01T04:58:55;2.25;;;0.60;;
40022;SDS011;25713;-35.352;149.036;2023-06-01T05:01:30;1.02;;;0.60;;
40022;SDS011;25713;-35.352;149.036;2023-06-01T05:03:59;1.52;;;0.60;;
40022;SDS011;25713;-35.352;149.036;2023-06-01T05:06:29;0.82;;;0.55;;
40022;SDS011;25713;-35.352;149.036;2023-06-01T05:08:59;0.75;;;0.50;;
40022;SDS011;25713;-35.352;149.036;2023-06-01T05:11:29;1.83;;;0.63;;
40022;SDS011;25713;-35.352;149.036;2023-06-01T05:13:59;2.22;;;0.60;;
40022;SDS011;25713;-35.352;149.036;2023-06-01T05:16:30;1.05;;;0.57;;
40022;SDS011;25713;-35.352;149.036;2023-06-01T05:21:29;0.43;;;0.40;;
40022;SDS011;25713;-35.352;149.036;2023-06-01T05:23:59;3.30;;;0.70;;
40022;SDS011;25713;-35.352;149.036;2023-06-01T05:26:29;1.85;;;0.57;;
40022;SDS011;25713;-35.352;149.036;2023-06-01T05:28:59;2.47;;;0.60;;
40022;SDS011;25713;-35.352;149.036;2023-06-01T05:31:32;1.55;;;0.73;;
40022;SDS011;25713;-35.352;149.036;2023-06-01T05:34:02;2.75;;;0.68;;
40022;SDS011;25713;-35.352;149.036;2023-06-01T05:36:32;2.85;;;0.52;;
40022;SDS011;25713;-35.352;149.036;2023-06-01T05:39:02;4.45;;;0.70;;
40022;SDS011;25713;-35.352;149.036;2023-06-01T05:41:31;1.92;;;0.60;;
40022;SDS011;25713;-35.352;149.036;2023-06-01T05:44:01;3.20;;;0.70;;
40022;SDS011;25713;-35.352;149.036;2023-06-01T05:46:34;1.85;;;0.60;;
40022;SDS011;25713;-35.352;149.036;2023-06-01T05:49:03;0.88;;;0.60;;
40022;SDS011;25713;-35.352;149.036;2023-06-01T05:51:33;3.08;;;0.80;;
40022;SDS011;25713;-35.352;149.036;2023-06-01T05:54:02;1.48;;;0.70;;
40022;SDS011;25713;-35.352;149.036;2023-06-01T05:56:32;0.60;;;0.50;;
40022;SDS011;25713;-35.352;149.036;2023-06-01T05:59:02;1.65;;;0.63;;
40022;SDS011;25713;-35.352;149.036;2023-06-01T06:01:35;3.25;;;0.80;;
40022;SDS011;25713;-35.352;149.036;2023-06-01T06:04:05;1.70;;;0.90;;
40022;SDS011;25713;-35.352;149.036;2023-06-01T06:06:35;1.05;;;0.70;;
40022;SDS011;25713;-35.352;149.036;2023-06-01T06:09:04;1.50;;;0.90;;
40022;SDS011;25713;-35.352;149.036;2023-06-01T06:11:34;2.92;;;0.80;;
40022;SDS011;25713;-35.352;149.036;2023-06-01T06:14:03;4.32;;;1.13;;
40022;SDS011;25713;-35.352;149.036;2023-06-01T06:16:35;3.08;;;1.00;;
40022;SDS011;25713;-35.352;149.036;2023-06-01T06:19:14;2.08;;;0.60;;
40022;SDS011;25713;-35.352;149.036;2023-06-01T06:21:43;1.40;;;0.65;;
40022;SDS011;25713;-35.352;149.036;2023-06-01T06:24:13;2.97;;;1.02;;
40022;SDS011;25713;-35.352;149.036;2023-06-01T06:26:43;1.85;;;0.82;;
40022;SDS011;25713;-35.352;149.036;2023-06-01T06:29:12;6.85;;;1.10;;
40022;SDS011;25713;-35.352;149.036;2023-06-01T06:31:44;1.55;;;0.90;;
40022;SDS011;25713;-35.352;149.036;2023-06-01T06:34:13;8.50;;;1.90;;
40022;SDS011;25713;-35.352;149.036;2023-06-01T06:36:43;2.65;;;1.13;;
40022;SDS011;25713;-35.352;149.036;2023-06-01T06:39:13;2.33;;;0.88;;
40022;SDS011;25713;-35.352;149.036;2023-06-01T06:41:42;1.73;;;0.98;;
40022;SDS011;25713;-35.352;149.036;2023-06-01T06:44:12;2.00;;;0.75;;
40022;SDS011;25713;-35.352;149.036;2023-06-01T06:46:47;2.42;;;0.90;;
40022;SDS011;25713;-35.352;149.036;2023-06-01T06:49:17;2.78;;;1.15;;
40022;SDS011;25713;-35.352;149.036;2023-06-01T06:51:47;2.22;;;0.70;;
40022;SDS011;25713;-35.352;149.036;2023-06-01T06:54:16;2.83;;;1.00;;
40022;SDS011;25713;-35.352;149.036;2023-06-01T06:56:46;1.67;;;0.80;;
40022;SDS011;25713;-35.352;149.036;2023-06-01T06:59:18;1.70;;;0.82;;
40022;SDS011;25713;-35.352;149.036;2023-06-01T07:04:18;1.55;;;0.77;;
40022;SDS011;25713;-35.352;149.036;2023-06-01T07:06:48;2.50;;;1.00;;
40022;SDS011;25713;-35.352;149.036;2023-06-01T07:09:18;3.03;;;0.85;;
40022;SDS011;25713;-35.352;149.036;2023-06-01T07:11:47;2.10;;;0.80;;
40022;SDS011;25713;-35.352;149.036;2023-06-01T07:14:17;1.92;;;0.70;;
40022;SDS011;25713;-35.352;149.036;2023-06-01T07:16:47;1.75;;;0.80;;
40022;SDS011;25713;-35.352;149.036;2023-06-01T07:19:18;2.33;;;0.90;;
40022;SDS011;25713;-35.352;149.036;2023-06-01T07:21:48;1.23;;;0.60;;
40022;SDS011;25713;-35.352;149.036;2023-06-01T07:24:23;3.25;;;0.85;;
40022;SDS011;25713;-35.352;149.036;2023-06-01T07:26:53;1.33;;;0.80;;
40022;SDS011;25713;-35.352;149.036;2023-06-01T07:29:22;1.65;;;0.77;;
40022;SDS011;25713;-35.352;149.036;2023-06-01T07:31:54;2.22;;;1.08;;
40022;SDS011;25713;-35.352;149.036;2023-06-01T07:34:23;1.95;;;0.70;;
40022;SDS011;25713;-35.352;149.036;2023-06-01T07:36:53;3.10;;;0.70;;
40022;SDS011;25713;-35.352;149.036;2023-06-01T07:39:22;1.80;;;0.80;;
40022;SDS011;25713;-35.352;149.036;2023-06-01T07:41:52;4.00;;;0.77;;
40022;SDS011;25713;-35.352;149.036;2023-06-01T07:44:22;2.30;;;0.70;;
40022;SDS011;25713;-35.352;149.036;2023-06-01T07:46:54;1.63;;;0.80;;
40022;SDS011;25713;-35.352;149.036;2023-06-01T07:49:24;2.88;;;0.70;;
40022;SDS011;25713;-35.352;149.036;2023-06-01T07:51:53;0.82;;;0.70;;
40022;SDS011;25713;-35.352;149.036;2023-06-01T07:54:23;1.58;;;0.80;;
40022;SDS011;25713;-35.352;149.036;2023-06-01T07:56:53;3.53;;;0.60;;
40022;SDS011;25713;-35.352;149.036;2023-06-01T07:59:22;2.15;;;0.70;;
40022;SDS011;25713;-35.352;149.036;2023-06-01T08:01:54;1.17;;;0.70;;
40022;SDS011;25713;-35.352;149.036;2023-06-01T08:04:23;1.50;;;0.63;;
40022;SDS011;25713;-35.352;149.036;2023-06-01T08:06:52;1.75;;;0.75;;
40022;SDS011;25713;-35.352;149.036;2023-06-01T08:09:22;1.75;;;0.80;;
40022;SDS011;25713;-35.352;149.036;2023-06-01T08:11:51;2.40;;;0.80;;
40022;SDS011;25713;-35.352;149.036;2023-06-01T08:14:21;1.15;;;0.70;;
40022;SDS011;25713;-35.352;149.036;2023-06-01T08:16:51;2.10;;;0.90;;
40022;SDS011;25713;-35.352;149.036;2023-06-01T08:19:22;2.55;;;0.93;;
40022;SDS011;25713;-35.352;149.036;2023-06-01T08:21:51;0.70;;;0.65;;
40022;SDS011;25713;-35.352;149.036;2023-06-01T08:24:21;1.90;;;0.90;;
40022;SDS011;25713;-35.352;149.036;2023-06-01T08:26:50;2.17;;;0.88;;
40022;SDS011;25713;-35.352;149.036;2023-06-01T08:29:22;2.08;;;0.75;;
40022;SDS011;25713;-35.352;149.036;2023-06-01T08:31:51;2.03;;;0.70;;
40022;SDS011;25713;-35.352;149.036;2023-06-01T08:34:23;2.63;;;1.00;;
40022;SDS011;25713;-35.352;149.036;2023-06-01T08:36:52;1.17;;;0.68;;
40022;SDS011;25713;-35.352;149.036;2023-06-01T08:39:21;2.13;;;0.98;;
40022;SDS011;25713;-35.352;149.036;2023-06-01T08:41:56;1.55;;;1.05;;
40022;SDS011;25713;-35.352;149.036;2023-06-01T08:44:33;2.42;;;0.80;;
40022;SDS011;25713;-35.352;149.036;2023-06-01T08:49:35;1.63;;;0.70;;
40022;SDS011;25713;-35.352;149.036;2023-06-01T08:52:07;2.33;;;0.70;;
40022;SDS011;25713;-35.352;149.036;2023-06-01T08:54:39;2.58;;;1.00;;
40022;SDS011;25713;-35.352;149.036;2023-06-01T08:57:09;1.38;;;0.80;;
40022;SDS011;25713;-35.352;149.036;2023-06-01T08:59:38;2.67;;;0.90;;
40022;SDS011;25713;-35.352;149.036;2023-06-01T09:02:11;2.25;;;0.70;;
40022;SDS011;25713;-35.352;149.036;2023-06-01T09:04:40;1.30;;;0.82;;
40022;SDS011;25713;-35.352;149.036;2023-06-01T09:07:10;1.75;;;0.73;;
40022;SDS011;25713;-35.352;149.036;2023-06-01T09:09:40;1.52;;;0.70;;
40022;SDS011;25713;-35.352;149.036;2023-06-01T09:12:20;1.95;;;0.77;;
40022;SDS011;25713;-35.352;149.036;2023-06-01T09:14:51;3.92;;;0.95;;
40022;SDS011;25713;-35.352;149.036;2023-06-01T09:17:40;1.40;;;0.80;;
40022;SDS011;25713;-35.352;149.036;2023-06-01T09:20:11;1.45;;;1.20;;
40022;SDS011;25713;-35.352;149.036;2023-06-01T09:22:42;2.42;;;0.90;;
40022;SDS011;25713;-35.352;149.036;2023-06-01T09:25:13;3.08;;;0.90;;
40022;SDS011;25713;-35.352;149.036;2023-06-01T09:27:44;3.22;;;1.00;;
40022;SDS011;25713;-35.352;149.036;2023-06-01T09:30:15;1.20;;;0.90;;
40022;SDS011;25713;-35.352;149.036;2023-06-01T09:32:48;4.13;;;1.38;;
40022;SDS011;25713;-35.352;149.036;2023-06-01T09:38:04;2.38;;;0.90;;
40022;SDS011;25713;-35.352;149.036;2023-06-01T09:40:34;1.85;;;0.90;;
40022;SDS011;25713;-35.352;149.036;2023-06-01T09:43:18;1.30;;;1.08;;
40022;SDS011;25713;-35.352;149.036;2023-06-01T09:48:36;4.30;;;1.40;;
40022;SDS011;25713;-35.352;149.036;2023-06-01T09:51:07;1.85;;;1.10;;
40022;SDS011;25713;-35.352;149.036;2023-06-01T09:53:49;3.60;;;1.50;;
40022;SDS011;25713;-35.352;149.036;2023-06-01T09:56:20;1.88;;;0.93;;
40022;SDS011;25713;-35.352;149.036;2023-06-01T09:58:50;3.22;;;0.95;;
40022;SDS011;25713;-35.352;149.036;2023-06-01T10:01:27;1.33;;;0.95;;
40022;SDS011;25713;-35.352;149.036;2023-06-01T10:04:02;1.85;;;0.82;;
40022;SDS011;25713;-35.352;149.036;2023-06-01T10:06:35;1.80;;;0.95;;
40022;SDS011;25713;-35.352;149.036;2023-06-01T10:09:07;2.72;;;0.80;;
40022;SDS011;25713;-35.352;149.036;2023-06-01T10:11:40;2.17;;;0.82;;
40022;SDS011;25713;-35.352;149.036;2023-06-01T10:14:11;2.55;;;1.15;;
40022;SDS011;25713;-35.352;149.036;2023-06-01T10:16:41;3.22;;;0.85;;
40022;SDS011;25713;-35.352;149.036;2023-06-01T10:19:15;1.20;;;0.70;;
40022;SDS011;25713;-35.352;149.036;2023-06-01T10:21:45;1.65;;;0.60;;
40022;SDS011;25713;-35.352;149.036;2023-06-01T10:24:15;1.80;;;0.70;;
40022;SDS011;25713;-35.352;149.036;2023-06-01T10:26:48;3.22;;;0.70;;
40022;SDS011;25713;-35.352;149.036;2023-06-01T10:29:25;1.42;;;0.73;;
40022;SDS011;25713;-35.352;149.036;2023-06-01T10:31:58;2.28;;;0.80;;
40022;SDS011;25713;-35.352;149.036;2023-06-01T10:34:41;1.70;;;0.82;;
40022;SDS011;25713;-35.352;149.036;2023-06-01T10:37:12;1.75;;;0.70;;
40022;SDS011;25713;-35.352;149.036;2023-06-01T10:39:43;1.67;;;0.60;;
40022;SDS011;25713;-35.352;149.036;2023-06-01T10:45:05;2.25;;;0.70;;
40022;SDS011;25713;-35.352;149.036;2023-06-01T10:47:45;3.78;;;0.68;;
40022;SDS011;25713;-35.352;149.036;2023-06-01T10:50:19;1.67;;;0.63;;
40022;SDS011;25713;-35.352;149.036;2023-06-01T10:52:49;1.15;;;0.63;;
40022;SDS011;25713;-35.352;149.036;2023-06-01T10:55:23;1.05;;;0.60;;
40022;SDS011;25713;-35.352;149.036;2023-06-01T11:00:48;2.53;;;0.75;;
40022;SDS011;25713;-35.352;149.036;2023-06-01T11:06:28;2.05;;;0.70;;
40022;SDS011;25713;-35.352;149.036;2023-06-01T11:08:58;3.75;;;0.73;;
40022;SDS011;25713;-35.352;149.036;2023-06-01T11:14:27;1.48;;;0.68;;
40022;SDS011;25713;-35.352;149.036;2023-06-01T11:20:02;2.50;;;0.98;;
40022;SDS011;25713;-35.352;149.036;2023-06-01T11:22:38;1.95;;;0.98;;
40022;SDS011;25713;-35.352;149.036;2023-06-01T11:25:08;2.75;;;1.15;;
40022;SDS011;25713;-35.352;149.036;2023-06-01T11:27:45;3.72;;;0.80;;
40022;SDS011;25713;-35.352;149.036;2023-06-01T11:30:18;1.20;;;0.80;;
40022;SDS011;25713;-35.352;149.036;2023-06-01T11:32:48;1.23;;;0.90;;
40022;SDS011;25713;-35.352;149.036;2023-06-01T11:35:21;2.58;;;1.08;;
40022;SDS011;25713;-35.352;149.036;2023-06-01T11:40:37;1.25;;;0.90;;
40022;SDS011;25713;-35.352;149.036;2023-06-01T11:43:28;2.03;;;0.88;;
40022;SDS011;25713;-35.352;149.036;2023-06-01T11:46:01;1.98;;;1.00;;
40022;SDS011;25713;-35.352;149.036;2023-06-01T11:48:32;1.50;;;0.80;;
40022;SDS011;25713;-35.352;149.036;2023-06-01T11:51:02;2.55;;;0.95;;
40022;SDS011;25713;-35.352;149.036;2023-06-01T11:53:36;3.70;;;1.00;;
40022;SDS011;25713;-35.352;149.036;2023-06-01T11:56:06;1.73;;;1.00;;
40022;SDS011;25713;-35.352;149.036;2023-06-01T11:58:36;3.33;;;1.10;;
40022;SDS011;25713;-35.352;149.036;2023-06-01T12:01:05;1.95;;;0.80;;
40022;SDS011;25713;-35.352;149.036;2023-06-01T12:03:36;1.55;;;0.90;;
40022;SDS011;25713;-35.352;149.036;2023-06-01T12:06:18;2.90;;;1.02;;
40022;SDS011;25713;-35.352;149.036;2023-06-01T12:08:52;2.60;;;1.13;;
40022;SDS011;25713;-35.352;149.036;2023-06-01T12:11:23;1.92;;;1.00;;
40022;SDS011;25713;-35.352;149.036;2023-06-01T12:13:54;2.42;;;1.15;;
40022;SDS011;25713;-35.352;149.036;2023-06-01T12:16:24;1.45;;;0.80;;
40022;SDS011;25713;-35.352;149.036;2023-06-01T12:19:13;3.38;;;0.95;;
40022;SDS011;25713;-35.352;149.036;2023-06-01T12:21:46;2.75;;;1.00;;
40022;SDS011;25713;-35.352;149.036;2023-06-01T12:24:20;2.75;;;1.08;;
40022;SDS011;25713;-35.352;149.036;2023-06-01T12:26:55;2.15;;;1.02;;
40022;SDS011;25713;-35.352;149.036;2023-06-01T12:29:35;1.83;;;1.00;;
40022;SDS011;25713;-35.352;149.036;2023-06-01T12:32:06;2.05;;;1.15;;
40022;SDS011;25713;-35.352;149.036;2023-06-01T12:34:36;3.58;;;1.13;;
40022;SDS011;25713;-35.352;149.036;2023-06-01T12:37:16;4.88;;;1.08;;
40022;SDS011;25713;-35.352;149.036;2023-06-01T12:39:54;4.10;;;1.42;;
40022;SDS011;25713;-35.352;149.036;2023-06-01T12:42:34;3.00;;;1.10;;
40022;SDS011;25713;-35.352;149.036;2023-06-01T12:45:04;3.08;;;1.02;;
40022;SDS011;25713;-35.352;149.036;2023-06-01T12:47:35;3.70;;;1.25;;
40022;SDS011;25713;-35.352;149.036;2023-06-01T12:50:05;3.53;;;1.10;;
40022;SDS011;25713;-35.352;149.036;2023-06-01T12:52:35;4.10;;;1.20;;
40022;SDS011;25713;-35.352;149.036;2023-06-01T12:55:09;2.63;;;1.30;;
40022;SDS011;25713;-35.352;149.036;2023-06-01T12:57:39;1.58;;;0.90;;
40022;SDS011;25713;-35.352;149.036;2023-06-01T13:00:09;4.07;;;1.38;;
40022;SDS011;25713;-35.352;149.036;2023-06-01T13:02:39;3.78;;;1.10;;
40022;SDS011;25713;-35.352;149.036;2023-06-01T13:05:09;2.55;;;0.98;;
40022;SDS011;25713;-35.352;149.036;2023-06-01T13:07:38;4.07;;;1.30;;
40022;SDS011;25713;-35.352;149.036;2023-06-01T13:10:10;3.88;;;1.23;;
40022;SDS011;25713;-35.352;149.036;2023-06-01T13:12:40;5.05;;;1.77;;
40022;SDS011;25713;-35.352;149.036;2023-06-01T13:15:09;2.17;;;1.27;;
40022;SDS011;25713;-35.352;149.036;2023-06-01T13:17:39;2.55;;;1.30;;
40022;SDS011;25713;-35.352;149.036;2023-06-01T13:20:09;2.83;;;1.10;;
40022;SDS011;25713;-35.352;149.036;2023-06-01T13:22:39;2.55;;;1.10;;
40022;SDS011;25713;-35.352;149.036;2023-06-01T13:25:12;2.67;;;1.20;;
40022;SDS011;25713;-35.352;149.036;2023-06-01T13:27:42;2.47;;;1.38;;
40022;SDS011;25713;-35.352;149.036;2023-06-01T13:30:11;1.58;;;1.05;;
40022;SDS011;25713;-35.352;149.036;2023-06-01T13:32:42;2.42;;;1.30;;
40022;SDS011;25713;-35.352;149.036;2023-06-01T13:35:12;3.13;;;1.52;;
40022;SDS011;25713;-35.352;149.036;2023-06-01T13:37:42;4.55;;;1.50;;
40022;SDS011;25713;-35.352;149.036;2023-06-01T13:40:15;2.90;;;1.13;;
40022;SDS011;25713;-35.352;149.036;2023-06-01T13:42:45;2.13;;;0.95;;
40022;SDS011;25713;-35.352;149.036;2023-06-01T13:45:15;3.40;;;1.10;;
40022;SDS011;25713;-35.352;149.036;2023-06-01T13:47:45;2.65;;;1.10;;
40022;SDS011;25713;-35.352;149.036;2023-06-01T13:50:14;2.85;;;0.88;;
40022;SDS011;25713;-35.352;149.036;2023-06-01T13:52:44;1.98;;;0.90;;
40022;SDS011;25713;-35.352;149.036;2023-06-01T13:55:16;1.38;;;0.90;;
40022;SDS011;25713;-35.352;149.036;2023-06-01T13:57:46;2.25;;;0.95;;
40022;SDS011;25713;-35.352;149.036;2023-06-01T14:00:16;3.88;;;0.70;;
40022;SDS011;25713;-35.352;149.036;2023-06-01T14:02:46;1.50;;;0.70;;
40022;SDS011;25713;-35.352;149.036;2023-06-01T14:05:15;3.20;;;0.82;;
40022;SDS011;25713;-35.352;149.036;2023-06-01T14:07:45;2.70;;;1.00;;
40022;SDS011;25713;-35.352;149.036;2023-06-01T14:10:18;1.95;;;1.00;;
40022;SDS011;25713;-35.352;149.036;2023-06-01T14:12:47;1.73;;;0.77;;
40022;SDS011;25713;-35.352;149.036;2023-06-01T14:15:17;1.15;;;0.82;;
40022;SDS011;25713;-35.352;149.036;2023-06-01T14:17:46;3.13;;;0.80;;
40022;SDS011;25713;-35.352;149.036;2023-06-01T14:20:16;3.30;;;0.90;;
40022;SDS011;25713;-35.352;149.036;2023-06-01T14:22:46;1.13;;;0.70;;
40022;SDS011;25713;-35.352;149.036;2023-06-01T14:25:17;2.95;;;0.90;;
40022;SDS011;25713;-35.352;149.036;2023-06-01T14:27:47;2.80;;;0.50;;
40022;SDS011;25713;-35.352;149.036;2023-06-01T14:30:16;1.63;;;0.70;;
40022;SDS011;25713;-35.352;149.036;2023-06-01T14:32:46;1.92;;;0.60;;
40022;SDS011;25713;-35.352;149.036;2023-06-01T14:35:16;2.03;;;0.85;;
40022;SDS011;25713;-35.352;149.036;2023-06-01T14:37:45;1.73;;;0.82;;
40022;SDS011;25713;-35.352;149.036;2023-06-01T14:40:14;1.95;;;0.98;;
40022;SDS011;25713;-35.352;149.036;2023-06-01T14:42:46;2.90;;;1.10;;
40022;SDS011;25713;-35.352;149.036;2023-06-01T14:45:16;1.92;;;1.05;;
40022;SDS011;25713;-35.352;149.036;2023-06-01T14:47:45;3.13;;;1.40;;
40022;SDS011;25713;-35.352;149.036;2023-06-01T15:50:55;2.78;;;1.17;;
40022;SDS011;25713;-35.352;149.036;2023-06-01T15:53:25;3.65;;;1.30;;
40022;SDS011;25713;-35.352;149.036;2023-06-01T15:55:55;2.47;;;1.30;;
40022;SDS011;25713;-35.352;149.036;2023-06-01T15:58:24;3.72;;;1.60;;
40022;SDS011;25713;-35.352;149.036;2023-06-01T16:00:54;4.88;;;2.00;;
40022;SDS011;25713;-35.352;149.036;2023-06-01T16:03:23;8.15;;;2.20;;
40022;SDS011;25713;-35.352;149.036;2023-06-01T16:05:56;4.80;;;2.50;;
40022;SDS011;25713;-35.352;149.036;2023-06-01T16:08:26;6.15;;;2.35;;